createdAt,value
2022-09-23T00:01:12.266Z,63.94
2022-09-23T00:03:17.229Z,63.47
2022-09-23T00:05:20.705Z,63.83
2022-09-23T00:07:24.155Z,63.95
2022-09-23T00:09:27.547Z,64.12
2022-09-23T00:11:32.972Z,64.20
2022-09-23T00:13:37.521Z,64.27
2022-09-23T00:15:41.047Z,64.56
2022-09-23T00:17:44.584Z,64.55
2022-09-23T00:19:48.782Z,64.30
2022-09-23T00:21:52.104Z,64.54
2022-09-23T00:23:55.660Z,63.97
2022-09-23T00:26:00.168Z,64.29
2022-09-23T00:28:05.042Z,64.09
2022-09-23T00:30:10.849Z,64.30
2022-09-23T00:32:14.451Z,64.27
2022-09-23T00:34:17.789Z,64.55
2022-09-23T00:36:21.135Z,64.31
2022-09-23T00:38:24.686Z,64.53
2022-09-23T00:40:28.088Z,64.40
2022-09-23T00:42:31.653Z,64.37
2022-09-23T00:44:47.997Z,64.42
2022-09-23T00:46:51.602Z,64.11
2022-09-23T00:49:00.418Z,64.24
2022-09-23T00:51:05.463Z,64.09
2022-09-23T00:53:13.499Z,64.67
2022-09-23T00:55:20.054Z,64.37
2022-09-23T00:57:24.765Z,64.74
2022-09-23T00:59:29.011Z,64.25
2022-09-23T01:01:34.133Z,64.88
2022-09-23T01:03:37.628Z,64.54
2022-09-23T01:05:42.439Z,64.79
2022-09-23T01:07:47.146Z,64.85
2022-09-23T01:09:51.235Z,64.84
2022-09-23T01:12:01.536Z,64.53
2022-09-23T01:14:24.124Z,64.62
2022-09-23T01:16:37.694Z,65.12
2022-09-23T01:18:47.203Z,64.84
2022-09-23T01:21:01.798Z,64.71
2022-09-23T01:23:18.722Z,64.99
2022-09-23T01:25:48.795Z,65.31
2022-09-23T01:28:13.291Z,65.02
2022-09-23T01:30:43.708Z,65.24
2022-09-23T01:33:04.751Z,64.75
2022-09-23T01:35:14.700Z,65.21
2022-09-23T01:37:28.625Z,65.64
2022-09-23T01:39:38.384Z,65.41
2022-09-23T01:41:52.426Z,65.57
2022-09-23T01:44:01.170Z,65.22
2022-09-23T01:46:11.282Z,65.90
2022-09-23T01:48:20.080Z,65.77
2022-09-23T01:50:46.191Z,65.18
2022-09-23T01:52:50.424Z,65.38
2022-09-23T01:54:58.853Z,65.71
2022-09-23T01:57:06.003Z,65.81
2022-09-23T01:59:14.730Z,65.44
2022-09-23T02:01:27.799Z,66.09
2022-09-23T02:03:35.855Z,66.16
2022-09-23T02:05:45.217Z,66.32
2022-09-23T02:07:55.112Z,66.34
2022-09-23T02:10:03.905Z,65.83
2022-09-23T02:12:13.442Z,65.80
2022-09-23T02:14:21.272Z,66.21
2022-09-23T02:16:39.407Z,66.14
2022-09-23T02:18:48.588Z,66.80
2022-09-23T02:20:56.492Z,66.91
2022-09-23T02:23:04.414Z,66.72
2022-09-23T02:25:09.761Z,66.50
2022-09-23T02:27:21.142Z,66.04
2022-09-23T02:29:33.138Z,66.34
2022-09-23T02:31:43.221Z,66.65
2022-09-23T02:33:55.468Z,66.16
2022-09-23T02:36:04.241Z,66.51
2022-09-23T02:38:19.103Z,66.66
2022-09-23T02:40:26.035Z,66.31
2022-09-23T02:42:38.394Z,67.36
2022-09-23T02:44:41.805Z,66.59
2022-09-23T02:46:47.857Z,67.11
2022-09-23T02:48:55.460Z,67.30
2022-09-23T02:51:02.243Z,67.16
2022-09-23T02:53:06.555Z,67.51
2022-09-23T02:55:13.037Z,67.86
2022-09-23T02:57:16.473Z,67.69
2022-09-23T02:59:21.778Z,67.52
2022-09-23T03:01:34.941Z,67.78
2022-09-23T03:03:47.954Z,67.97
2022-09-23T03:05:56.141Z,68.00
2022-09-23T03:08:20.228Z,67.40
2022-09-23T03:10:31.023Z,68.75
2022-09-23T03:12:41.612Z,68.70
2022-09-23T03:14:55.156Z,68.59
2022-09-23T03:17:05.090Z,68.74
2022-09-23T03:19:20.933Z,68.43
2022-09-23T03:21:30.542Z,68.66
2022-09-23T03:23:36.945Z,68.08
2022-09-23T03:25:44.711Z,68.25
2022-09-23T03:27:48.011Z,67.97
2022-09-23T03:29:54.083Z,68.21
2022-09-23T03:31:59.057Z,68.42
2022-09-23T03:34:07.075Z,67.92
2022-09-23T03:36:31.896Z,68.00
2022-09-23T03:38:40.476Z,68.27
2022-09-23T03:40:50.836Z,68.33
2022-09-23T03:42:57.467Z,68.52
2022-09-23T03:45:01.517Z,67.96
2022-09-23T03:47:04.962Z,67.85
2022-09-23T03:49:13.803Z,68.53
2022-09-23T03:51:24.079Z,68.44
2022-09-23T03:53:27.522Z,68.23
2022-09-23T03:55:32.104Z,68.40
2022-09-23T03:57:35.742Z,68.42
2022-09-23T03:59:39.243Z,68.31
2022-09-23T04:01:43.066Z,68.46
2022-09-23T04:03:46.597Z,68.29
2022-09-23T04:05:50.077Z,68.78
2022-09-23T04:07:54.941Z,68.58
2022-09-23T04:09:58.958Z,68.53
2022-09-23T04:12:03.548Z,68.54
2022-09-23T04:14:07.176Z,68.73
2022-09-23T04:16:10.857Z,68.57
2022-09-23T04:18:14.307Z,69.08
2022-09-23T04:20:19.005Z,68.76
2022-09-23T04:22:22.542Z,69.14
2022-09-23T04:24:27.404Z,69.04
2022-09-23T04:26:31.041Z,69.44
2022-09-23T04:28:35.323Z,69.30
2022-09-23T04:30:41.639Z,69.92
2022-09-23T04:32:45.070Z,69.59
2022-09-23T04:34:48.774Z,68.92
2022-09-23T04:36:52.107Z,69.86
2022-09-23T04:38:56.384Z,69.32
2022-09-23T04:41:01.294Z,69.56
2022-09-23T04:43:04.812Z,69.69
2022-09-23T04:45:09.169Z,69.67
2022-09-23T04:47:12.971Z,69.91
2022-09-23T04:49:16.969Z,70.39
2022-09-23T04:51:21.949Z,69.48
2022-09-23T04:53:25.520Z,69.69
2022-09-23T04:55:29.297Z,69.75
2022-09-23T04:57:34.447Z,70.01
2022-09-23T04:59:37.987Z,70.06
2022-09-23T05:01:41.621Z,69.87
2022-09-23T05:03:46.065Z,69.59
2022-09-23T05:05:49.408Z,69.73
2022-09-23T05:07:52.825Z,69.41
2022-09-23T05:09:56.237Z,69.75
2022-09-23T05:11:59.763Z,69.87
2022-09-23T05:14:04.572Z,69.14
2022-09-23T05:16:09.655Z,69.42
2022-09-23T05:18:13.125Z,69.69
2022-09-23T05:20:17.814Z,70.13
2022-09-23T05:22:21.191Z,69.86
2022-09-23T05:24:25.074Z,69.82
2022-09-23T05:26:30.484Z,69.96
2022-09-23T05:28:34.893Z,70.25
2022-09-23T05:30:39.634Z,69.92
2022-09-23T05:32:43.125Z,70.16
2022-09-23T05:34:46.524Z,70.45
2022-09-23T05:36:49.869Z,70.03
2022-09-23T05:38:54.629Z,70.08
2022-09-23T05:40:58.886Z,69.77
2022-09-23T05:43:02.205Z,70.16
2022-09-23T05:45:07.579Z,69.72
2022-09-23T05:47:12.823Z,70.16
2022-09-23T05:49:16.294Z,70.42
2022-09-23T05:51:21.115Z,70.15
2022-09-23T05:53:24.542Z,69.56
2022-09-23T05:55:28.615Z,70.28
2022-09-23T05:57:33.236Z,69.64
2022-09-23T05:59:38.167Z,69.98
2022-09-23T06:01:41.772Z,70.15
2022-09-23T06:03:48.625Z,70.84
2022-09-23T06:05:54.038Z,70.55
2022-09-23T06:07:58.374Z,69.85
2022-09-23T06:10:01.777Z,70.30
2022-09-23T06:12:06.383Z,70.17
2022-09-23T06:14:13.816Z,69.70
2022-09-23T06:16:17.515Z,69.73
2022-09-23T06:18:20.983Z,70.14
2022-09-23T06:20:25.766Z,70.26
2022-09-23T06:22:29.149Z,69.54
2022-09-23T06:24:32.989Z,69.27
2022-09-23T06:26:37.699Z,69.76
2022-09-23T06:28:43.290Z,69.35
2022-09-23T06:30:47.729Z,69.26
2022-09-23T06:32:52.202Z,69.16
2022-09-23T06:34:55.618Z,69.08
2022-09-23T06:37:07.484Z,68.63
2022-09-23T06:39:15.992Z,69.38
2022-09-23T06:41:20.712Z,68.21
2022-09-23T06:43:25.446Z,68.05
2022-09-23T06:45:29.872Z,68.76
2022-09-23T06:47:33.315Z,68.93
2022-09-23T06:49:36.842Z,68.49
2022-09-23T06:51:40.298Z,68.15
2022-09-23T06:53:45.110Z,67.39
2022-09-23T06:55:48.420Z,67.68
2022-09-23T06:57:53.682Z,67.46
2022-09-23T06:59:58.401Z,67.59
2022-09-23T07:02:01.946Z,67.12
2022-09-23T07:04:07.579Z,67.10
2022-09-23T07:06:11.893Z,67.62
2022-09-23T07:08:15.654Z,67.59
2022-09-23T07:10:20.516Z,67.46
2022-09-23T07:12:24.126Z,67.02
2022-09-23T07:14:27.678Z,67.30
2022-09-23T07:16:31.635Z,67.24
2022-09-23T07:18:37.323Z,67.18
2022-09-23T07:20:40.997Z,67.09
2022-09-23T07:22:44.904Z,67.00
2022-09-23T07:24:48.363Z,66.48
2022-09-23T07:26:53.248Z,65.59
2022-09-23T07:29:04.619Z,65.55
2022-09-23T07:31:11.060Z,64.34
2022-09-23T07:33:28.866Z,64.19
2022-09-23T07:35:35.151Z,64.97
2022-09-23T07:37:39.708Z,63.85
2022-09-23T07:39:43.659Z,64.53
2022-09-23T07:41:47.198Z,63.66
2022-09-23T07:43:52.665Z,63.74
2022-09-23T07:45:56.093Z,64.11
2022-09-23T07:47:59.980Z,63.61
2022-09-23T07:50:03.441Z,63.72
2022-09-23T07:52:06.926Z,63.38
2022-09-23T07:54:13.180Z,63.58
2022-09-23T07:56:19.019Z,63.93
2022-09-23T07:58:22.644Z,63.67
2022-09-23T08:00:27.573Z,63.84
2022-09-23T08:02:31.421Z,63.46
2022-09-23T08:04:34.960Z,63.27
2022-09-23T08:06:42.273Z,63.08
2022-09-23T08:08:51.170Z,63.11
2022-09-23T08:11:02.515Z,63.22
2022-09-23T08:13:05.905Z,62.94
2022-09-23T08:15:10.068Z,63.11
2022-09-23T08:17:14.895Z,63.25
2022-09-23T08:19:18.571Z,62.82
2022-09-23T08:21:23.053Z,62.29
2022-09-23T08:23:26.638Z,62.44
2022-09-23T08:25:34.079Z,62.53
2022-09-23T08:27:39.247Z,62.08
2022-09-23T08:29:42.691Z,62.27
2022-09-23T08:31:47.019Z,61.85
2022-09-23T08:33:56.718Z,62.06
2022-09-23T08:36:01.339Z,61.63
2022-09-23T08:38:04.947Z,61.74
2022-09-23T08:40:09.516Z,61.39
2022-09-23T08:42:20.065Z,61.59
2022-09-23T08:44:29.039Z,61.46
2022-09-23T08:46:37.603Z,60.91
2022-09-23T08:48:44.822Z,61.18
2022-09-23T08:50:55.631Z,60.82
2022-09-23T08:53:02.976Z,60.59
2022-09-23T08:55:12.564Z,60.77
2022-09-23T08:57:31.542Z,60.86
2022-09-23T08:59:42.732Z,59.75
2022-09-23T09:01:50.508Z,59.55
2022-09-23T09:03:56.923Z,60.26
2022-09-23T09:06:01.978Z,59.59
2022-09-23T09:08:05.930Z,59.54
2022-09-23T09:10:18.179Z,58.77
2022-09-23T09:12:28.026Z,58.31
2022-09-23T09:14:40.101Z,58.87
2022-09-23T09:17:00.558Z,58.43
2022-09-23T09:19:13.387Z,58.26
2022-09-23T09:21:18.128Z,58.09
2022-09-23T09:23:23.635Z,58.57
2022-09-23T09:25:38.993Z,57.53
2022-09-23T09:27:42.943Z,58.21
2022-09-23T09:29:50.219Z,57.86
2022-09-23T09:31:53.830Z,57.43
2022-09-23T09:34:03.723Z,57.65
2022-09-23T09:36:23.514Z,57.86
2022-09-23T09:38:27.901Z,56.95
2022-09-23T09:40:31.319Z,56.93
2022-09-23T09:42:40.309Z,57.48
2022-09-23T09:44:50.490Z,57.11
2022-09-23T09:47:02.955Z,57.03
2022-09-23T09:49:15.302Z,56.96
2022-09-23T09:51:22.209Z,56.26
2022-09-23T09:53:27.585Z,56.65
2022-09-23T09:55:30.980Z,56.48
2022-09-23T09:57:40.026Z,56.89
2022-09-23T09:59:44.280Z,56.57
2022-09-23T10:01:47.911Z,56.01
2022-09-23T10:03:56.989Z,55.77
2022-09-23T10:06:14.942Z,56.35
2022-09-23T10:08:27.175Z,55.88
2022-09-23T10:10:33.182Z,55.17
2022-09-23T10:12:45.685Z,54.72
2022-09-23T10:14:51.610Z,55.54
2022-09-23T10:17:05.530Z,54.77
2022-09-23T10:19:24.903Z,54.03
2022-09-23T10:21:35.655Z,53.46
2022-09-23T10:23:44.653Z,54.00
2022-09-23T10:25:57.595Z,54.31
2022-09-23T10:28:31.755Z,54.49
2022-09-23T10:30:38.438Z,53.96
2022-09-23T10:32:45.919Z,52.80
2022-09-23T10:34:53.103Z,52.76
2022-09-23T10:37:04.338Z,52.47
2022-09-23T10:39:27.767Z,51.99
2022-09-23T10:41:54.673Z,52.30
2022-09-23T10:44:24.962Z,50.56
2022-09-23T10:46:49.541Z,51.20
2022-09-23T10:49:08.966Z,51.60
2022-09-23T10:51:25.479Z,49.91
2022-09-23T10:53:42.005Z,49.21
2022-09-23T10:55:59.055Z,49.11
2022-09-23T10:58:20.670Z,48.30
2022-09-23T11:00:28.339Z,48.44
2022-09-23T11:02:49.539Z,48.86
2022-09-23T11:05:21.321Z,48.53
2022-09-23T11:07:36.917Z,46.38
2022-09-23T11:09:55.785Z,45.71
2022-09-23T11:12:14.725Z,46.05
2022-09-23T11:14:32.728Z,44.65
2022-09-23T11:16:53.629Z,45.99
2022-09-23T11:19:16.152Z,45.62
2022-09-23T11:21:39.482Z,46.03
2022-09-23T11:24:15.926Z,46.18
2022-09-23T11:26:33.091Z,46.28
2022-09-23T11:29:09.093Z,45.20
2022-09-23T11:31:27.198Z,44.99
2022-09-23T11:33:45.879Z,45.91
2022-09-23T11:35:52.523Z,45.56
2022-09-23T11:38:02.587Z,45.63
2022-09-23T11:40:15.457Z,45.69
2022-09-23T11:42:24.120Z,46.29
2022-09-23T11:44:33.109Z,45.47
2022-09-23T11:46:41.811Z,45.80
2022-09-23T11:48:50.884Z,45.97
2022-09-23T11:51:00.768Z,46.22
2022-09-23T11:53:12.734Z,46.92
2022-09-23T11:55:22.966Z,46.59
2022-09-23T11:57:46.469Z,46.82
2022-09-23T11:59:58.065Z,46.81
2022-09-23T12:02:18.355Z,46.78
2022-09-23T12:04:31.271Z,46.61
2022-09-23T12:06:41.359Z,46.57
2022-09-23T12:08:44.675Z,47.07
2022-09-23T12:10:57.509Z,46.30
2022-09-23T12:13:08.251Z,46.12
2022-09-23T12:15:25.093Z,45.95
2022-09-23T12:18:09.411Z,46.38
2022-09-23T12:20:33.803Z,46.46
2022-09-23T12:22:50.553Z,45.51
2022-09-23T12:25:00.473Z,45.87
2022-09-23T12:27:08.175Z,45.66
2022-09-23T12:29:15.131Z,44.52
2022-09-23T12:31:22.866Z,43.58
2022-09-23T12:33:29.961Z,43.76
2022-09-23T12:35:42.359Z,43.84
2022-09-23T12:37:45.787Z,43.63
2022-09-23T12:39:49.256Z,43.52
2022-09-23T12:41:59.381Z,43.67
2022-09-23T12:44:16.432Z,43.64
2022-09-23T12:46:25.626Z,43.50
2022-09-23T12:48:46.668Z,43.72
2022-09-23T12:51:16.287Z,43.75
2022-09-23T12:53:57.216Z,43.37
2022-09-23T12:56:01.683Z,43.31
2022-09-23T12:58:48.989Z,42.90
2022-09-23T13:01:08.409Z,43.58
2022-09-23T13:03:31.618Z,43.27
2022-09-23T13:06:02.306Z,43.47
2022-09-23T13:08:09.379Z,42.73
2022-09-23T13:10:18.164Z,42.90
2022-09-23T13:12:26.695Z,42.99
2022-09-23T13:14:33.407Z,42.97
2022-09-23T13:16:43.531Z,42.28
2022-09-23T13:18:56.881Z,41.62
2022-09-23T13:21:01.558Z,42.07
2022-09-23T13:23:23.447Z,42.15
2022-09-23T13:25:28.975Z,42.42
2022-09-23T13:27:34.957Z,43.15
2022-09-23T13:29:44.172Z,43.05
2022-09-23T13:31:48.436Z,43.45
2022-09-23T13:33:57.710Z,43.74
2022-09-23T13:36:04.280Z,43.79
2022-09-23T13:38:12.269Z,44.46
2022-09-23T13:40:23.745Z,44.49
2022-09-23T13:42:31.176Z,45.07
2022-09-23T13:44:34.777Z,45.69
2022-09-23T13:46:46.690Z,45.62
2022-09-23T13:48:54.575Z,46.06
2022-09-23T13:50:58.077Z,46.34
2022-09-23T13:53:07.127Z,46.61
2022-09-23T13:55:29.248Z,46.65
2022-09-23T13:57:34.904Z,46.76
2022-09-23T13:59:42.296Z,46.66
2022-09-23T14:01:47.012Z,46.89
2022-09-23T14:03:51.200Z,47.41
2022-09-23T14:05:56.017Z,47.23
2022-09-23T14:08:03.091Z,47.49
2022-09-23T14:10:08.074Z,47.23
2022-09-23T14:12:12.351Z,46.92
2022-09-23T14:14:16.240Z,46.94
2022-09-23T14:16:19.760Z,46.79
2022-09-23T14:18:41.503Z,46.86
2022-09-23T14:20:50.196Z,47.00
2022-09-23T14:23:06.673Z,47.15
2022-09-23T14:25:15.489Z,47.38
2022-09-23T14:27:22.208Z,47.46
2022-09-23T14:29:28.403Z,47.38
2022-09-23T14:31:32.856Z,47.78
2022-09-23T14:33:41.678Z,47.67
2022-09-23T14:35:47.982Z,47.36
2022-09-23T14:38:10.947Z,47.20
2022-09-23T14:40:18.347Z,47.36
2022-09-23T14:42:21.724Z,47.31
2022-09-23T14:44:28.035Z,47.44
2022-09-23T14:46:34.224Z,47.33
2022-09-23T14:48:37.665Z,47.92
2022-09-23T14:50:48.511Z,47.83
2022-09-23T14:52:52.719Z,48.22
2022-09-23T14:54:56.165Z,47.84
2022-09-23T14:57:01.807Z,48.35
2022-09-23T14:59:25.687Z,47.84
2022-09-23T15:01:38.656Z,47.93
2022-09-23T15:03:48.183Z,47.93
2022-09-23T15:05:57.773Z,47.82
2022-09-23T15:08:03.865Z,47.21
2022-09-23T15:10:09.660Z,47.25
2022-09-23T15:12:16.288Z,46.81
2022-09-23T15:14:37.311Z,47.05
2022-09-23T15:16:42.067Z,47.12
2022-09-23T15:18:46.553Z,46.77
2022-09-23T15:20:52.137Z,46.69
2022-09-23T15:22:56.836Z,46.85
2022-09-23T15:25:12.656Z,46.93
2022-09-23T15:27:41.530Z,46.26
2022-09-23T15:29:44.918Z,46.53
2022-09-23T15:31:48.297Z,46.70
2022-09-23T15:33:52.093Z,45.93
2022-09-23T15:35:55.800Z,46.35
2022-09-23T15:38:03.232Z,46.31
2022-09-23T15:40:07.638Z,46.49
2022-09-23T15:42:11.777Z,46.63
2022-09-23T15:44:20.418Z,47.19
2022-09-23T15:46:27.384Z,46.80
2022-09-23T15:48:38.682Z,46.73
2022-09-23T15:50:42.711Z,47.09
2022-09-23T15:52:46.041Z,47.02
2022-09-23T15:54:49.429Z,47.06
2022-09-23T15:56:52.794Z,47.08
2022-09-23T15:58:56.237Z,47.17
2022-09-23T16:01:02.012Z,47.34
2022-09-23T16:03:06.603Z,47.29
2022-09-23T16:05:18.460Z,47.44
2022-09-23T16:07:21.861Z,47.76
2022-09-23T16:09:26.604Z,47.56
2022-09-23T16:11:32.776Z,47.64
2022-09-23T16:13:36.106Z,47.38
2022-09-23T16:15:40.017Z,47.23
2022-09-23T16:17:44.857Z,47.87
2022-09-23T16:19:48.178Z,48.54
2022-09-23T16:21:51.620Z,48.60
2022-09-23T16:23:57.023Z,48.80
2022-09-23T16:26:00.972Z,48.90
2022-09-23T16:28:05.362Z,48.68
2022-09-23T16:30:10.058Z,48.42
2022-09-23T16:32:15.332Z,49.12
2022-09-23T16:34:22.857Z,49.24
2022-09-23T16:36:28.863Z,49.36
2022-09-23T16:38:32.763Z,50.03
2022-09-23T16:40:36.177Z,50.21
2022-09-23T16:42:39.529Z,50.11
2022-09-23T16:44:43.097Z,50.41
2022-09-23T16:46:46.504Z,50.39
2022-09-23T16:48:52.984Z,50.84
2022-09-23T16:50:57.981Z,51.65
2022-09-23T16:53:01.526Z,52.28
2022-09-23T16:55:05.520Z,53.34
2022-09-23T16:57:09.103Z,54.00
2022-09-23T16:59:12.981Z,54.23
2022-09-23T17:01:37.085Z,54.69
2022-09-23T17:03:42.282Z,55.01
2022-09-23T17:05:46.915Z,54.98
2022-09-23T17:07:51.723Z,55.01
2022-09-23T17:09:55.136Z,55.37
2022-09-23T17:12:07.674Z,55.36
2022-09-23T17:14:11.301Z,55.62
2022-09-23T17:16:24.888Z,55.87
2022-09-23T17:18:28.676Z,56.40
2022-09-23T17:20:32.039Z,56.73
2022-09-23T17:22:35.404Z,57.25
2022-09-23T17:24:40.161Z,57.80
2022-09-23T17:26:44.203Z,57.68
2022-09-23T17:28:47.602Z,58.07
2022-09-23T17:30:52.680Z,58.29
2022-09-23T17:32:55.946Z,58.63
2022-09-23T17:35:04.403Z,58.93
2022-09-23T17:37:07.735Z,59.29
2022-09-23T17:39:11.118Z,59.09
2022-09-23T17:41:19.540Z,59.18
2022-09-23T17:43:25.004Z,59.97
2022-09-23T17:45:28.480Z,60.14
2022-09-23T17:47:33.571Z,60.42
2022-09-23T17:49:37.241Z,60.85
2022-09-23T17:51:41.059Z,61.61
2022-09-23T17:53:46.570Z,61.93
2022-09-23T17:55:57.324Z,62.01
2022-09-23T17:58:02.195Z,62.01
2022-09-23T18:00:07.470Z,62.11
2022-09-23T18:02:15.817Z,61.88
2022-09-23T18:04:19.675Z,61.68
2022-09-23T18:06:25.889Z,61.66
2022-09-23T18:08:31.802Z,61.57
2022-09-23T18:10:35.233Z,61.83
2022-09-23T18:12:38.561Z,62.25
2022-09-23T18:14:45.217Z,62.60
2022-09-23T18:16:50.332Z,62.68
2022-09-23T18:18:54.080Z,62.98
2022-09-23T18:21:01.181Z,63.60
2022-09-23T18:23:04.604Z,63.47
2022-09-23T18:25:22.984Z,63.51
2022-09-23T18:27:35.240Z,63.65
2022-09-23T18:29:38.632Z,63.52
2022-09-23T18:31:44.958Z,63.89
2022-09-23T18:33:50.619Z,63.80
2022-09-23T18:35:54.151Z,63.69
2022-09-23T18:37:57.687Z,64.01
2022-09-23T18:40:01.057Z,64.09
2022-09-23T18:42:04.661Z,64.10
2022-09-23T18:44:08.235Z,64.09
2022-09-23T18:46:14.427Z,64.24
2022-09-23T18:48:36.600Z,63.83
2022-09-23T18:50:43.472Z,63.94
2022-09-23T18:52:48.176Z,64.19
2022-09-23T18:54:55.051Z,63.79
2022-09-23T18:56:59.182Z,63.67
2022-09-23T18:59:02.571Z,63.89
2022-09-23T19:01:07.879Z,64.16
2022-09-23T19:03:11.300Z,64.08
2022-09-23T19:05:16.130Z,64.11
2022-09-23T19:07:19.561Z,64.19
2022-09-23T19:09:23.247Z,64.28
2022-09-23T19:11:26.826Z,64.37
2022-09-23T19:13:30.638Z,64.50
2022-09-23T19:15:34.158Z,64.43
2022-09-23T19:17:37.527Z,64.79
2022-09-23T19:19:40.944Z,64.68
2022-09-23T19:21:45.771Z,64.94
2022-09-23T19:23:51.319Z,65.23
2022-09-23T19:25:55.960Z,65.35
2022-09-23T19:28:00.112Z,65.54
2022-09-23T19:30:07.054Z,65.44
2022-09-23T19:32:10.549Z,65.54
2022-09-23T19:34:15.570Z,65.41
2022-09-23T19:36:24.268Z,65.39
2022-09-23T19:38:29.027Z,65.62
2022-09-23T19:40:32.485Z,65.88
2022-09-23T19:42:37.209Z,66.33
2022-09-23T19:44:40.988Z,66.30
2022-09-23T19:46:45.696Z,67.05
2022-09-23T19:48:49.550Z,67.20
2022-09-23T19:50:52.892Z,66.96
2022-09-23T19:52:56.237Z,66.75
2022-09-23T19:55:01.548Z,67.13
2022-09-23T19:57:05.127Z,68.21
2022-09-23T19:59:09.364Z,68.73
2022-09-23T20:01:12.914Z,69.56
2022-09-23T20:03:17.984Z,70.11
2022-09-23T20:05:21.455Z,70.42
2022-09-23T20:07:25.096Z,70.33
2022-09-23T20:09:28.969Z,70.19
2022-09-23T20:11:34.563Z,70.07
2022-09-23T20:13:39.038Z,70.27
2022-09-23T20:15:43.603Z,69.93
2022-09-23T20:17:47.124Z,70.30
2022-09-23T20:19:50.456Z,70.50
2022-09-23T20:22:07.734Z,70.80
2022-09-23T20:24:12.359Z,70.86
2022-09-23T20:26:33.510Z,70.71
2022-09-23T20:28:38.475Z,70.57
2022-09-23T20:30:43.922Z,70.89
2022-09-23T20:32:48.593Z,70.53
2022-09-23T20:34:53.315Z,70.36
2022-09-23T20:36:56.859Z,70.34
2022-09-23T20:39:01.631Z,70.16
2022-09-23T20:41:06.637Z,70.93
2022-09-23T20:43:10.039Z,71.31
2022-09-23T20:45:16.748Z,71.23
2022-09-23T20:47:20.443Z,71.21
2022-09-23T20:49:23.885Z,71.21
2022-09-23T20:51:27.525Z,71.19
2022-09-23T20:53:31.819Z,70.63
2022-09-23T20:55:35.296Z,71.29
2022-09-23T20:57:38.633Z,70.65
2022-09-23T20:59:43.235Z,71.27
2022-09-23T21:01:48.074Z,71.73
2022-09-23T21:03:52.373Z,71.76
2022-09-23T21:05:55.931Z,72.29
2022-09-23T21:08:02.763Z,72.44
2022-09-23T21:10:08.546Z,72.55
2022-09-23T21:12:11.889Z,72.56
2022-09-23T21:14:15.805Z,72.71
2022-09-23T21:16:21.965Z,72.75
2022-09-23T21:18:26.763Z,72.49
2022-09-23T21:20:30.095Z,72.71
2022-09-23T21:22:33.464Z,72.62
2022-09-23T21:27:00.202Z,73.57
2022-09-23T21:29:04.787Z,73.16
2022-09-23T21:31:10.677Z,73.41
2022-09-23T21:33:15.661Z,73.30
2022-09-23T21:35:20.414Z,73.16
2022-09-23T21:37:23.901Z,72.92
2022-09-23T21:39:27.330Z,73.24
2022-09-23T21:41:30.129Z,73.09
2022-09-23T21:43:35.180Z,73.70
2022-09-23T21:45:38.569Z,73.37
2022-09-23T21:47:42.092Z,73.38
2022-09-23T21:49:49.908Z,73.28
2022-09-23T21:52:00.714Z,73.44
2022-09-23T21:54:04.924Z,73.70
2022-09-23T21:56:10.247Z,73.93
2022-09-23T21:58:14.513Z,73.81
2022-09-23T22:00:18.019Z,73.29
2022-09-23T22:02:21.398Z,73.78
2022-09-23T22:04:24.872Z,73.45
2022-09-23T22:06:30.485Z,73.39
2022-09-23T22:08:37.050Z,72.94
2022-09-23T22:10:40.552Z,73.56
2022-09-23T22:12:43.915Z,73.14
2022-09-23T22:14:47.898Z,73.63
2022-09-23T22:16:51.469Z,73.39
2022-09-23T22:18:56.171Z,73.13
2022-09-23T22:20:59.726Z,73.15
2022-09-23T22:23:03.070Z,73.20
2022-09-23T22:25:08.808Z,73.18
2022-09-23T22:27:13.999Z,72.88
2022-09-23T22:29:35.005Z,72.82
2022-09-23T22:31:56.190Z,72.58
2022-09-23T22:33:59.621Z,72.74
2022-09-23T22:36:03.777Z,72.73
2022-09-23T22:38:07.230Z,72.95
2022-09-23T22:40:15.118Z,72.94
2022-09-23T22:42:21.205Z,72.24
2022-09-23T22:44:25.212Z,72.21
2022-09-23T22:46:28.799Z,73.12
2022-09-23T22:48:32.258Z,73.87
2022-09-23T22:50:39.969Z,74.85
2022-09-23T22:52:43.641Z,74.97
2022-09-23T22:54:47.091Z,75.28
2022-09-23T22:56:51.918Z,75.91
2022-09-23T22:58:56.802Z,75.89
2022-09-23T23:01:00.270Z,75.81
2022-09-23T23:03:03.650Z,76.26
2022-09-23T23:05:08.423Z,76.11
2022-09-23T23:07:13.615Z,76.09
2022-09-23T23:09:19.283Z,76.12
2022-09-23T23:11:22.628Z,75.95
2022-09-23T23:13:32.409Z,75.95
2022-09-23T23:15:38.904Z,76.36
2022-09-23T23:17:43.637Z,75.95
2022-09-23T23:19:47.435Z,76.35
2022-09-23T23:21:51.703Z,76.03
2022-09-23T23:23:55.330Z,75.60
2022-09-23T23:25:58.742Z,75.29
2022-09-23T23:28:02.469Z,74.68
2022-09-23T23:30:09.344Z,74.25
2022-09-23T23:32:13.210Z,74.47
2022-09-23T23:34:18.282Z,74.70
2022-09-23T23:36:23.527Z,74.02
2022-09-23T23:38:27.389Z,74.40
2022-09-23T23:40:30.791Z,74.20
2022-09-23T23:42:34.621Z,74.25
2022-09-23T23:44:38.109Z,74.01
2022-09-23T23:46:42.859Z,73.79
2022-09-23T23:48:49.177Z,73.60
2022-09-23T23:50:54.711Z,73.42
2022-09-23T23:52:59.239Z,73.32
2022-09-23T23:55:02.889Z,73.74
2022-09-23T23:57:06.292Z,74.38
2022-09-23T23:59:09.760Z,75.07
